createdAt,value
2017-01-27T00:00:04.137Z,0
2017-01-27T00:01:15.738Z,0
2017-01-27T00:02:27.134Z,0
2017-01-27T00:03:38.546Z,0
2017-01-27T00:04:49.942Z,0
2017-01-27T00:06:01.388Z,0
2017-01-27T00:07:12.991Z,0
2017-01-27T00:08:24.401Z,0
2017-01-27T00:09:35.800Z,0
2017-01-27T00:10:47.204Z,0
2017-01-27T00:11:58.663Z,0
2017-01-27T00:13:10.059Z,0
2017-01-27T00:14:21.459Z,0
2017-01-27T00:15:33.061Z,0
2017-01-27T00:16:44.497Z,0
2017-01-27T00:17:55.957Z,0
2017-01-27T00:19:07.564Z,0
2017-01-27T00:20:18.967Z,0
2017-01-27T00:21:30.564Z,0
2017-01-27T00:22:41.967Z,0
2017-01-27T00:23:53.416Z,0
2017-01-27T00:25:04.825Z,0
2017-01-27T00:26:16.224Z,0
2017-01-27T00:27:27.827Z,0
2017-01-27T00:28:39.232Z,0
2017-01-27T00:29:50.670Z,0
2017-01-27T00:31:02.067Z,0
2017-01-27T00:32:13.467Z,0
2017-01-27T00:33:24.867Z,0
2017-01-27T00:34:36.460Z,0
2017-01-27T00:35:47.913Z,0
2017-01-27T00:36:59.319Z,0
2017-01-27T00:38:10.720Z,0
2017-01-27T00:39:22.119Z,0
2017-01-27T00:40:33.720Z,0
2017-01-27T00:41:45.163Z,0
2017-01-27T00:42:56.566Z,0
2017-01-27T00:44:07.973Z,0
2017-01-27T00:45:19.369Z,0
2017-01-27T00:46:30.971Z,0
2017-01-27T00:47:42.625Z,0
2017-01-27T00:48:54.024Z,0
2017-01-27T00:50:05.423Z,0
2017-01-27T00:51:16.817Z,0
2017-01-27T00:52:28.225Z,0
2017-01-27T00:53:39.682Z,0
2017-01-27T00:54:51.071Z,0
2017-01-27T00:56:02.671Z,0
2017-01-27T00:57:14.074Z,0
2017-01-27T00:58:25.469Z,0
2017-01-27T00:59:36.922Z,0
2017-01-27T01:00:48.533Z,0
2017-01-27T01:01:59.940Z,0
2017-01-27T01:03:11.337Z,0
2017-01-27T01:04:22.743Z,0
2017-01-27T01:05:34.192Z,0
2017-01-27T01:06:45.597Z,0
2017-01-27T01:07:56.994Z,0
2017-01-27T01:09:08.399Z,0
2017-01-27T01:10:19.802Z,0
2017-01-27T01:11:31.258Z,0
2017-01-27T01:12:42.856Z,0
2017-01-27T01:13:54.262Z,0
2017-01-27T01:15:05.670Z,0
2017-01-27T01:16:17.072Z,0
2017-01-27T01:17:28.718Z,0
2017-01-27T01:18:40.117Z,0
2017-01-27T01:19:51.524Z,0
2017-01-27T01:21:02.923Z,0
2017-01-27T01:22:14.342Z,0
2017-01-27T01:23:25.784Z,0
2017-01-27T01:24:37.182Z,0
2017-01-27T01:25:48.573Z,0
2017-01-27T01:26:59.966Z,0
2017-01-27T01:28:11.568Z,0
2017-01-27T01:29:23.013Z,0
2017-01-27T01:30:34.406Z,0
2017-01-27T01:31:46.015Z,0
2017-01-27T01:32:57.414Z,0
2017-01-27T01:34:08.807Z,0
2017-01-27T01:35:20.661Z,0
2017-01-27T01:36:32.066Z,0
2017-01-27T01:37:43.462Z,0
2017-01-27T01:38:54.860Z,0
2017-01-27T01:40:06.288Z,0
2017-01-27T01:41:17.736Z,0
2017-01-27T01:42:29.338Z,0
2017-01-27T01:43:40.743Z,0
2017-01-27T01:44:52.141Z,0
2017-01-27T01:46:03.942Z,0
2017-01-27T01:47:15.383Z,0
2017-01-27T01:48:26.986Z,0
2017-01-27T01:49:38.385Z,0
2017-01-27T01:50:49.792Z,0
2017-01-27T01:52:01.189Z,0
2017-01-27T01:53:12.831Z,0
2017-01-27T01:54:24.228Z,0
2017-01-27T01:55:35.839Z,0
2017-01-27T01:56:47.244Z,0
2017-01-27T01:57:58.645Z,0
2017-01-27T01:59:10.100Z,0
2017-01-27T02:00:21.510Z,0
2017-01-27T02:01:32.908Z,0
2017-01-27T02:02:44.310Z,0
2017-01-27T02:03:55.712Z,0
2017-01-27T02:05:07.171Z,0
2017-01-27T02:06:18.986Z,0
2017-01-27T02:07:30.390Z,0
2017-01-27T02:08:41.788Z,0
2017-01-27T02:09:53.393Z,0
2017-01-27T02:11:04.852Z,0
2017-01-27T02:12:16.249Z,0
2017-01-27T02:13:27.848Z,0
2017-01-27T02:14:39.253Z,0
2017-01-27T02:15:50.668Z,0
2017-01-27T02:17:02.133Z,0
2017-01-27T02:18:13.535Z,0
2017-01-27T02:19:24.941Z,0
2017-01-27T02:20:36.337Z,0
2017-01-27T02:21:47.940Z,0
2017-01-27T02:22:59.602Z,0
2017-01-27T02:24:11.200Z,0
2017-01-27T02:25:22.598Z,0
2017-01-27T02:26:34.009Z,0
2017-01-27T02:27:45.407Z,0
2017-01-27T02:28:56.862Z,0
2017-01-27T02:30:08.259Z,0
2017-01-27T02:31:19.660Z,0
2017-01-27T02:32:31.067Z,0
2017-01-27T02:33:42.674Z,0
2017-01-27T02:34:54.128Z,0
2017-01-27T02:36:05.526Z,0
2017-01-27T02:37:16.926Z,0
2017-01-27T02:38:28.319Z,0
2017-01-27T02:39:39.716Z,0
2017-01-27T02:40:51.161Z,0
2017-01-27T02:42:02.564Z,0
2017-01-27T02:43:13.962Z,0
2017-01-27T02:44:25.361Z,0
2017-01-27T02:45:36.763Z,0
2017-01-27T02:46:48.217Z,0
2017-01-27T02:47:59.820Z,0
2017-01-27T02:49:11.218Z,0
2017-01-27T02:50:22.824Z,0
2017-01-27T02:51:34.239Z,0
2017-01-27T02:52:45.691Z,0
2017-01-27T02:53:57.096Z,0
2017-01-27T02:55:08.702Z,0
2017-01-27T02:56:20.097Z,0
2017-01-27T02:57:31.495Z,0
2017-01-27T02:58:43.176Z,0
2017-01-27T02:59:54.574Z,0
2017-01-27T03:01:06.178Z,0
2017-01-27T03:02:17.581Z,0
2017-01-27T03:03:29.183Z,0
2017-01-27T03:04:40.644Z,0
2017-01-27T03:05:52.042Z,0
2017-01-27T03:07:03.447Z,0
2017-01-27T03:08:14.843Z,0
2017-01-27T03:09:26.247Z,0
2017-01-27T03:10:37.698Z,0
2017-01-27T03:11:49.102Z,0
2017-01-27T03:13:00.530Z,0
2017-01-27T03:14:12.134Z,0
2017-01-27T03:15:23.544Z,0
2017-01-27T03:16:34.992Z,0
2017-01-27T03:17:46.399Z,0
2017-01-27T03:18:57.812Z,0
2017-01-27T03:20:09.209Z,0
2017-01-27T03:21:20.606Z,0
2017-01-27T03:22:32.057Z,0
2017-01-27T03:23:43.487Z,0
2017-01-27T03:24:54.889Z,0
2017-01-27T03:26:06.296Z,0
2017-01-27T03:27:17.700Z,0
2017-01-27T03:28:29.343Z,0
2017-01-27T03:29:40.741Z,0
2017-01-27T03:30:52.137Z,0
2017-01-27T03:32:03.732Z,0
2017-01-27T03:33:15.131Z,0
2017-01-27T03:34:26.583Z,0
2017-01-27T03:35:38.183Z,0
2017-01-27T03:36:49.610Z,0
2017-01-27T03:38:01.015Z,0
2017-01-27T03:39:12.413Z,0
2017-01-27T03:40:23.854Z,0
2017-01-27T03:41:35.248Z,0
2017-01-27T03:42:46.642Z,0
2017-01-27T03:43:58.248Z,0
2017-01-27T03:45:09.871Z,0
2017-01-27T03:46:21.521Z,0
2017-01-27T03:47:33.126Z,0
2017-01-27T03:48:44.514Z,0
2017-01-27T03:49:55.908Z,0
2017-01-27T03:51:07.310Z,0
2017-01-27T03:52:18.764Z,0
2017-01-27T03:53:30.166Z,0
2017-01-27T03:54:41.578Z,0
2017-01-27T03:55:52.969Z,0
2017-01-27T03:57:04.398Z,0
2017-01-27T03:58:15.860Z,0
2017-01-27T03:59:27.252Z,0
2017-01-27T04:00:38.851Z,0
2017-01-27T04:01:50.245Z,0
2017-01-27T04:03:01.660Z,0
2017-01-27T04:04:13.110Z,0
2017-01-27T04:05:24.505Z,0
2017-01-27T04:06:35.906Z,0
2017-01-27T04:07:47.504Z,0
2017-01-27T04:08:58.902Z,0
2017-01-27T04:10:10.395Z,0
2017-01-27T04:11:21.801Z,0
2017-01-27T04:12:33.392Z,0
2017-01-27T04:13:44.789Z,0
2017-01-27T04:14:56.188Z,0
2017-01-27T04:16:07.636Z,0
2017-01-27T04:17:19.032Z,0
2017-01-27T04:18:30.632Z,0
2017-01-27T04:19:42.242Z,0
2017-01-27T04:20:53.648Z,0
2017-01-27T04:22:05.097Z,0
2017-01-27T04:23:16.698Z,0
2017-01-27T04:24:28.305Z,0
2017-01-27T04:25:39.705Z,0
2017-01-27T04:26:51.114Z,0
2017-01-27T04:28:02.612Z,0
2017-01-27T04:29:14.243Z,0
2017-01-27T04:30:25.642Z,0
2017-01-27T04:31:37.239Z,0
2017-01-27T04:32:48.842Z,0
2017-01-27T04:34:00.497Z,0
2017-01-27T04:35:11.896Z,0
2017-01-27T04:36:23.295Z,0
2017-01-27T04:37:34.694Z,0
2017-01-27T04:38:46.097Z,0
2017-01-27T04:39:57.544Z,0
2017-01-27T04:41:08.944Z,0
2017-01-27T04:42:20.346Z,0
2017-01-27T04:43:31.747Z,0
2017-01-27T04:44:43.150Z,0
2017-01-27T04:45:54.803Z,0
2017-01-27T04:47:06.209Z,0
2017-01-27T04:48:17.616Z,0
2017-01-27T04:49:29.011Z,0
2017-01-27T04:50:40.408Z,0
2017-01-27T04:51:51.851Z,0
2017-01-27T04:53:03.260Z,0
2017-01-27T04:54:14.657Z,0
2017-01-27T04:55:26.057Z,0
2017-01-27T04:56:37.459Z,0
2017-01-27T04:57:48.914Z,0
2017-01-27T04:59:00.322Z,0
2017-01-27T05:00:11.723Z,0
2017-01-27T05:01:23.129Z,0
2017-01-27T05:02:34.526Z,0
2017-01-27T05:03:45.977Z,0
2017-01-27T05:04:57.387Z,0
2017-01-27T05:06:08.990Z,0
2017-01-27T05:07:20.386Z,0
2017-01-27T05:08:31.990Z,0
2017-01-27T05:09:43.441Z,0
2017-01-27T05:10:54.834Z,0
2017-01-27T05:12:06.232Z,0
2017-01-27T05:13:17.632Z,0
2017-01-27T05:14:29.220Z,0
2017-01-27T05:15:40.664Z,0
2017-01-27T05:16:52.060Z,0
2017-01-27T05:18:03.463Z,0
2017-01-27T05:19:14.859Z,0
2017-01-27T05:20:26.253Z,0
2017-01-27T05:21:38.113Z,0
2017-01-27T05:22:49.717Z,0
2017-01-27T05:24:01.145Z,0
2017-01-27T05:25:12.547Z,0
2017-01-27T05:26:23.949Z,0
2017-01-27T05:27:35.400Z,0
2017-01-27T05:28:46.806Z,0
2017-01-27T05:29:58.417Z,0
2017-01-27T05:31:09.812Z,0
2017-01-27T05:32:21.210Z,0
2017-01-27T05:33:32.656Z,0
2017-01-27T05:34:44.078Z,0
2017-01-27T05:35:55.481Z,0
2017-01-27T05:37:07.084Z,0
2017-01-27T05:38:18.482Z,0
2017-01-27T05:39:29.928Z,0
2017-01-27T05:40:41.337Z,0
2017-01-27T05:41:52.733Z,0
2017-01-27T05:43:04.128Z,0
2017-01-27T05:44:15.717Z,0
2017-01-27T05:45:27.164Z,0
2017-01-27T05:46:38.552Z,0
2017-01-27T05:47:49.954Z,0
2017-01-27T05:49:01.382Z,0
2017-01-27T05:50:12.784Z,0
2017-01-27T05:51:24.234Z,0
2017-01-27T05:52:35.659Z,0
2017-01-27T05:53:47.299Z,0
2017-01-27T05:54:58.699Z,0
2017-01-27T05:56:10.130Z,0
2017-01-27T05:57:21.582Z,0
2017-01-27T05:58:33.181Z,0
2017-01-27T05:59:44.788Z,0
2017-01-27T06:00:56.189Z,0
2017-01-27T06:02:07.595Z,0
2017-01-27T06:03:19.038Z,0
2017-01-27T06:04:30.437Z,0
2017-01-27T06:05:41.840Z,0
2017-01-27T06:06:53.234Z,0
2017-01-27T06:08:04.633Z,0
2017-01-27T06:09:16.281Z,0
2017-01-27T06:10:27.877Z,0
2017-01-27T06:11:39.279Z,0
2017-01-27T06:12:50.679Z,0
2017-01-27T06:14:02.287Z,0
2017-01-27T06:15:13.734Z,0
2017-01-27T06:16:25.339Z,0
2017-01-27T06:17:36.742Z,0
2017-01-27T06:18:48.152Z,0
2017-01-27T06:19:59.554Z,0
2017-01-27T06:21:11.004Z,0
2017-01-27T06:22:22.608Z,0
2017-01-27T06:23:34.009Z,0
2017-01-27T06:24:45.413Z,0
2017-01-27T06:25:57.020Z,0
2017-01-27T06:27:08.475Z,0
2017-01-27T06:28:19.883Z,0
2017-01-27T06:29:31.289Z,0
2017-01-27T06:30:42.692Z,0
2017-01-27T06:31:54.098Z,0
2017-01-27T06:33:05.557Z,0
2017-01-27T06:34:16.960Z,0
2017-01-27T06:35:28.362Z,0
2017-01-27T06:36:39.965Z,0
2017-01-27T06:37:51.370Z,0
2017-01-27T06:39:02.822Z,0
2017-01-27T06:40:14.226Z,0
2017-01-27T06:41:25.625Z,0
2017-01-27T06:42:37.029Z,0
2017-01-27T06:43:48.434Z,0
2017-01-27T06:44:59.884Z,0
2017-01-27T06:46:11.298Z,0
2017-01-27T06:47:22.697Z,0
2017-01-27T06:48:34.297Z,0
2017-01-27T06:49:45.699Z,0
2017-01-27T06:50:57.148Z,0
2017-01-27T06:52:08.561Z,0
2017-01-27T06:53:19.956Z,0
2017-01-27T06:54:31.351Z,0
2017-01-27T06:55:42.748Z,0
2017-01-27T06:56:54.193Z,5
2017-01-27T06:58:05.577Z,5
2017-01-27T06:59:16.980Z,5
2017-01-27T07:00:28.579Z,5
2017-01-27T07:01:39.985Z,5
2017-01-27T07:02:51.642Z,10
2017-01-27T07:04:03.058Z,10
2017-01-27T07:05:14.450Z,10
2017-01-27T07:06:25.846Z,10
2017-01-27T07:07:37.450Z,10
2017-01-27T07:08:48.902Z,15
2017-01-27T07:10:00.702Z,15
2017-01-27T07:11:12.103Z,15
2017-01-27T07:12:23.701Z,15
2017-01-27T07:13:35.096Z,15
2017-01-27T07:14:46.539Z,20
2017-01-27T07:15:57.942Z,20
2017-01-27T07:17:09.336Z,20
2017-01-27T07:18:20.739Z,25
2017-01-27T07:19:32.142Z,25
2017-01-27T07:20:43.596Z,25
2017-01-27T07:21:55.392Z,30
2017-01-27T07:23:06.999Z,35
2017-01-27T07:24:18.605Z,35
2017-01-27T07:25:30.215Z,40
2017-01-27T07:26:41.860Z,45
2017-01-27T07:27:53.264Z,45
2017-01-27T07:29:04.660Z,45
2017-01-27T07:30:16.261Z,50
2017-01-27T07:31:27.655Z,55
2017-01-27T07:32:39.113Z,60
2017-01-27T07:33:50.530Z,70
2017-01-27T07:35:01.928Z,85
2017-01-27T07:36:13.325Z,100
2017-01-27T07:37:24.927Z,90
2017-01-27T07:38:36.586Z,85
2017-01-27T07:39:48.187Z,95
2017-01-27T07:40:59.591Z,100
2017-01-27T07:42:11.006Z,110
2017-01-27T07:43:22.612Z,110
2017-01-27T07:44:34.062Z,130
2017-01-27T07:45:45.682Z,150
2017-01-27T07:46:57.286Z,155
2017-01-27T07:48:08.692Z,130
2017-01-27T07:49:20.078Z,130
2017-01-27T07:50:31.535Z,130
2017-01-27T07:51:42.941Z,140
2017-01-27T07:52:54.343Z,135
2017-01-27T07:54:05.742Z,135
2017-01-27T07:55:17.137Z,150
2017-01-27T07:56:28.587Z,145
2017-01-27T07:57:40.018Z,140
2017-01-27T07:58:51.415Z,145
2017-01-27T08:00:03.019Z,150
2017-01-27T08:01:14.415Z,155
2017-01-27T08:02:25.866Z,160
2017-01-27T08:03:37.466Z,165
2017-01-27T08:04:49.076Z,170
2017-01-27T08:06:00.483Z,175
2017-01-27T08:07:11.889Z,180
2017-01-27T08:08:23.541Z,185
2017-01-27T08:09:34.946Z,195
2017-01-27T08:10:46.554Z,205
2017-01-27T08:11:57.960Z,230
2017-01-27T08:13:09.365Z,250
2017-01-27T08:14:20.805Z,290
2017-01-27T08:15:32.204Z,295
2017-01-27T08:16:43.605Z,300
2017-01-27T08:17:55.207Z,325
2017-01-27T08:19:06.605Z,360
2017-01-27T08:20:18.271Z,370
2017-01-27T08:21:29.898Z,310
2017-01-27T08:22:41.514Z,290
2017-01-27T08:23:52.943Z,290
2017-01-27T08:25:04.339Z,290
2017-01-27T08:26:15.794Z,315
2017-01-27T08:27:27.395Z,385
2017-01-27T08:28:38.807Z,370
2017-01-27T08:29:50.208Z,370
2017-01-27T08:31:01.605Z,310
2017-01-27T08:32:13.257Z,295
2017-01-27T08:33:24.859Z,310
2017-01-27T08:34:36.260Z,325
2017-01-27T08:35:47.670Z,305
2017-01-27T08:36:59.267Z,300
2017-01-27T08:38:10.722Z,300
2017-01-27T08:39:22.154Z,305
2017-01-27T08:40:33.758Z,305
2017-01-27T08:41:45.159Z,320
2017-01-27T08:42:56.761Z,330
2017-01-27T08:44:08.218Z,330
2017-01-27T08:45:19.624Z,325
2017-01-27T08:46:31.025Z,325
2017-01-27T08:47:42.434Z,345
2017-01-27T08:48:53.837Z,365
2017-01-27T08:50:05.286Z,420
2017-01-27T08:51:16.698Z,450
2017-01-27T08:52:28.301Z,485
2017-01-27T08:53:39.708Z,470
2017-01-27T08:54:51.107Z,415
2017-01-27T08:56:02.564Z,380
2017-01-27T08:57:13.961Z,360
2017-01-27T08:58:25.368Z,355
2017-01-27T08:59:36.778Z,375
2017-01-27T09:00:48.393Z,400
2017-01-27T09:01:59.857Z,425
2017-01-27T09:03:11.264Z,395
2017-01-27T09:04:22.662Z,395
2017-01-27T09:05:34.069Z,390
2017-01-27T09:06:45.680Z,415
2017-01-27T09:07:57.137Z,435
2017-01-27T09:09:08.541Z,445
2017-01-27T09:10:19.947Z,435
2017-01-27T09:11:31.379Z,415
2017-01-27T09:12:42.795Z,435
2017-01-27T09:13:54.248Z,450
2017-01-27T09:15:05.652Z,460
2017-01-27T09:16:17.059Z,470
2017-01-27T09:17:28.483Z,490
2017-01-27T09:18:40.094Z,490
2017-01-27T09:19:51.556Z,490
2017-01-27T09:21:02.963Z,465
2017-01-27T09:22:14.372Z,470
2017-01-27T09:23:25.779Z,465
2017-01-27T09:24:37.209Z,485
2017-01-27T09:25:48.879Z,495
2017-01-27T09:27:00.281Z,520
2017-01-27T09:28:11.892Z,590
2017-01-27T09:29:23.311Z,580
2017-01-27T09:30:34.720Z,585
2017-01-27T09:31:46.180Z,495
2017-01-27T09:32:57.584Z,585
2017-01-27T09:34:08.982Z,575
2017-01-27T09:35:20.386Z,675
2017-01-27T09:36:31.789Z,650
2017-01-27T09:37:43.250Z,610
2017-01-27T09:38:54.881Z,645
2017-01-27T09:40:06.484Z,620
2017-01-27T09:41:17.905Z,555
2017-01-27T09:42:29.319Z,530
2017-01-27T09:43:40.794Z,525
2017-01-27T09:44:52.200Z,530
2017-01-27T09:46:03.608Z,565
2017-01-27T09:47:15.214Z,610
2017-01-27T09:48:26.621Z,645
2017-01-27T09:49:38.084Z,730
2017-01-27T09:50:49.496Z,665
2017-01-27T09:52:00.913Z,610
2017-01-27T09:53:12.331Z,650
2017-01-27T09:54:23.742Z,605
2017-01-27T09:55:35.403Z,535
2017-01-27T09:56:46.806Z,615
2017-01-27T09:57:58.217Z,610
2017-01-27T09:59:09.621Z,590
2017-01-27T10:00:21.029Z,575
2017-01-27T10:01:32.492Z,555
2017-01-27T10:02:44.097Z,600
2017-01-27T10:03:55.496Z,560
2017-01-27T10:05:06.912Z,540
2017-01-27T10:06:18.519Z,610
2017-01-27T10:07:29.978Z,630
2017-01-27T10:08:41.385Z,615
2017-01-27T10:09:53.002Z,575
2017-01-27T10:11:04.609Z,570
2017-01-27T10:12:16.010Z,545
2017-01-27T10:13:27.466Z,545
2017-01-27T10:14:38.878Z,580
2017-01-27T10:15:50.291Z,755
2017-01-27T10:17:01.923Z,890
2017-01-27T10:18:13.325Z,715
2017-01-27T10:19:24.782Z,670
2017-01-27T10:20:36.192Z,910
2017-01-27T10:21:47.631Z,780
2017-01-27T10:22:59.076Z,945
2017-01-27T10:24:10.688Z,1145
2017-01-27T10:25:22.146Z,1085
2017-01-27T10:26:33.570Z,1130
2017-01-27T10:27:44.979Z,1185
2017-01-27T10:28:56.384Z,1430
2017-01-27T10:30:07.804Z,1170
2017-01-27T10:31:19.256Z,1125
2017-01-27T10:32:30.662Z,1165
2017-01-27T10:33:42.301Z,1195
2017-01-27T10:34:53.916Z,1310
2017-01-27T10:36:05.331Z,995
2017-01-27T10:37:16.796Z,825
2017-01-27T10:38:28.210Z,790
2017-01-27T10:39:39.821Z,890
2017-01-27T10:40:51.235Z,1010
2017-01-27T10:42:02.647Z,1060
2017-01-27T10:43:14.114Z,1060
2017-01-27T10:44:25.522Z,880
2017-01-27T10:45:37.133Z,685
2017-01-27T10:46:48.543Z,695
2017-01-27T10:47:59.966Z,805
2017-01-27T10:49:11.430Z,780
2017-01-27T10:50:22.838Z,820
2017-01-27T10:51:34.247Z,950
2017-01-27T10:52:45.867Z,1025
2017-01-27T10:53:57.278Z,1075
2017-01-27T10:55:08.746Z,1005
2017-01-27T10:56:20.163Z,1025
2017-01-27T10:57:31.572Z,920
2017-01-27T10:58:42.995Z,845
2017-01-27T10:59:54.411Z,885
2017-01-27T11:01:05.872Z,930
2017-01-27T11:02:17.284Z,995
2017-01-27T11:03:28.904Z,1080
2017-01-27T11:04:40.345Z,1105
2017-01-27T11:05:51.767Z,1130
2017-01-27T11:07:03.221Z,1200
2017-01-27T11:08:14.633Z,1275
2017-01-27T11:09:26.049Z,1205
2017-01-27T11:10:37.464Z,1120
2017-01-27T11:11:48.887Z,975
2017-01-27T11:13:00.355Z,980
2017-01-27T11:14:11.771Z,990
2017-01-27T11:15:23.212Z,865
2017-01-27T11:16:34.617Z,970
2017-01-27T11:17:46.238Z,955
2017-01-27T11:18:57.700Z,1030
2017-01-27T11:20:09.334Z,950
2017-01-27T11:21:20.752Z,1005
2017-01-27T11:22:32.156Z,880
2017-01-27T11:23:43.774Z,760
2017-01-27T11:24:55.245Z,815
2017-01-27T11:26:06.661Z,725
2017-01-27T11:27:18.068Z,740
2017-01-27T11:28:29.489Z,715
2017-01-27T11:29:41.299Z,670
2017-01-27T11:30:52.763Z,670
2017-01-27T11:32:04.181Z,655
2017-01-27T11:33:15.597Z,610
2017-01-27T11:34:27.027Z,530
2017-01-27T11:35:38.434Z,540
2017-01-27T11:36:50.092Z,530
2017-01-27T11:38:01.509Z,485
2017-01-27T11:39:12.928Z,470
2017-01-27T11:40:24.341Z,465
2017-01-27T11:41:35.755Z,455
2017-01-27T11:42:47.411Z,445
2017-01-27T11:43:58.826Z,450
2017-01-27T11:45:10.239Z,445
2017-01-27T11:46:21.656Z,450
2017-01-27T11:47:33.071Z,470
2017-01-27T11:48:44.534Z,545
2017-01-27T11:49:56.147Z,555
2017-01-27T11:51:07.753Z,605
2017-01-27T11:52:19.370Z,590
2017-01-27T11:53:30.780Z,545
2017-01-27T11:54:42.245Z,570
2017-01-27T11:55:53.652Z,580
2017-01-27T11:57:05.074Z,555
2017-01-27T11:58:16.497Z,535
2017-01-27T11:59:27.913Z,545
2017-01-27T12:00:39.383Z,605
2017-01-27T12:01:50.798Z,610
2017-01-27T12:03:02.416Z,640
2017-01-27T12:04:14.030Z,630
2017-01-27T12:05:25.439Z,640
2017-01-27T12:06:36.942Z,680
2017-01-27T12:07:48.380Z,675
2017-01-27T12:08:59.984Z,680
2017-01-27T12:10:11.390Z,660
2017-01-27T12:11:22.799Z,655
2017-01-27T12:12:34.260Z,575
2017-01-27T12:13:45.902Z,555
2017-01-27T12:14:57.314Z,505
2017-01-27T12:16:08.746Z,430
2017-01-27T12:17:20.159Z,405
2017-01-27T12:18:31.620Z,400
2017-01-27T12:19:43.033Z,425
2017-01-27T12:20:54.443Z,465
2017-01-27T12:22:05.847Z,480
2017-01-27T12:23:17.263Z,490
2017-01-27T12:24:28.727Z,455
2017-01-27T12:25:40.133Z,420
2017-01-27T12:26:51.752Z,425
2017-01-27T12:28:03.162Z,455
2017-01-27T12:29:14.781Z,495
2017-01-27T12:30:26.441Z,475
2017-01-27T12:31:37.855Z,455
2017-01-27T12:32:49.272Z,445
2017-01-27T12:34:00.687Z,440
2017-01-27T12:35:12.298Z,425
2017-01-27T12:36:23.960Z,440
2017-01-27T12:37:35.574Z,420
2017-01-27T12:38:46.996Z,385
2017-01-27T12:39:58.433Z,355
2017-01-27T12:41:09.841Z,385
2017-01-27T12:42:21.298Z,430
2017-01-27T12:43:32.705Z,440
2017-01-27T12:44:44.124Z,385
2017-01-27T12:45:55.538Z,395
2017-01-27T12:47:06.951Z,420
2017-01-27T12:48:18.417Z,430
2017-01-27T12:49:29.825Z,430
2017-01-27T12:50:41.235Z,380
2017-01-27T12:51:52.645Z,355
2017-01-27T12:53:04.259Z,365
2017-01-27T12:54:15.927Z,375
2017-01-27T12:55:27.335Z,360
2017-01-27T12:56:38.757Z,360
2017-01-27T12:57:50.171Z,355
2017-01-27T12:59:01.782Z,355
2017-01-27T13:00:13.286Z,355
2017-01-27T13:01:24.700Z,355
2017-01-27T13:02:36.115Z,355
2017-01-27T13:03:47.931Z,370
2017-01-27T13:04:59.385Z,380
2017-01-27T13:06:10.853Z,355
2017-01-27T13:07:22.270Z,345
2017-01-27T13:08:33.683Z,335
2017-01-27T13:09:45.301Z,315
2017-01-27T13:10:56.715Z,305
2017-01-27T13:12:08.186Z,290
2017-01-27T13:13:19.593Z,285
2017-01-27T13:14:31.207Z,270
2017-01-27T13:15:42.626Z,265
2017-01-27T13:16:54.242Z,260
2017-01-27T13:18:05.739Z,270
2017-01-27T13:19:17.158Z,255
2017-01-27T13:20:28.775Z,245
2017-01-27T13:21:40.591Z,245
2017-01-27T13:22:52.206Z,240
2017-01-27T13:24:03.669Z,245
2017-01-27T13:25:15.090Z,245
2017-01-27T13:26:26.508Z,250
2017-01-27T13:27:37.927Z,245
2017-01-27T13:28:49.347Z,225
2017-01-27T13:30:00.798Z,225
2017-01-27T13:31:12.212Z,225
2017-01-27T13:32:23.617Z,220
2017-01-27T13:33:35.036Z,220
2017-01-27T13:34:46.442Z,215
2017-01-27T13:35:57.906Z,210
2017-01-27T13:37:09.325Z,210
2017-01-27T13:38:20.742Z,205
2017-01-27T13:39:32.350Z,200
2017-01-27T13:40:43.767Z,200
2017-01-27T13:41:55.230Z,190
2017-01-27T13:43:06.643Z,185
2017-01-27T13:44:18.054Z,185
2017-01-27T13:45:29.667Z,180
2017-01-27T13:46:41.080Z,175
2017-01-27T13:47:52.546Z,170
2017-01-27T13:49:03.953Z,165
2017-01-27T13:50:15.570Z,165
2017-01-27T13:51:26.979Z,160
2017-01-27T13:52:38.397Z,160
2017-01-27T13:53:49.862Z,160
2017-01-27T13:55:01.293Z,155
2017-01-27T13:56:12.696Z,155
2017-01-27T13:57:24.101Z,155
2017-01-27T13:58:35.711Z,155
2017-01-27T13:59:47.364Z,155
2017-01-27T14:00:58.764Z,160
2017-01-27T14:02:10.182Z,160
2017-01-27T14:03:21.585Z,155
2017-01-27T14:04:32.991Z,155
2017-01-27T14:05:44.459Z,150
2017-01-27T14:06:55.867Z,150
2017-01-27T14:08:07.282Z,150
2017-01-27T14:09:18.691Z,150
2017-01-27T14:10:30.102Z,155
2017-01-27T14:11:41.564Z,155
2017-01-27T14:12:52.972Z,155
2017-01-27T14:14:04.373Z,150
2017-01-27T14:15:15.782Z,150
2017-01-27T14:16:27.195Z,150
2017-01-27T14:17:38.660Z,145
2017-01-27T14:18:50.077Z,145
2017-01-27T14:20:01.698Z,145
2017-01-27T14:21:13.314Z,140
2017-01-27T14:22:24.752Z,140
2017-01-27T14:23:36.209Z,140
2017-01-27T14:24:47.823Z,140
2017-01-27T14:25:59.234Z,135
2017-01-27T14:27:10.650Z,135
2017-01-27T14:28:22.257Z,135
2017-01-27T14:29:33.917Z,130
2017-01-27T14:30:45.334Z,130
2017-01-27T14:31:56.758Z,125
2017-01-27T14:33:08.370Z,125
2017-01-27T14:34:19.772Z,125
2017-01-27T14:35:31.223Z,120
2017-01-27T14:36:42.652Z,120
2017-01-27T14:37:54.063Z,120
2017-01-27T14:39:05.500Z,120
2017-01-27T14:40:16.918Z,120
2017-01-27T14:41:28.380Z,120
2017-01-27T14:42:39.787Z,120
2017-01-27T14:43:51.199Z,115
2017-01-27T14:45:02.622Z,115
2017-01-27T14:46:14.034Z,115
2017-01-27T14:47:25.496Z,110
2017-01-27T14:48:37.157Z,110
2017-01-27T14:49:48.556Z,110
2017-01-27T14:50:59.964Z,105
2017-01-27T14:52:11.399Z,105
2017-01-27T14:53:23.268Z,105
2017-01-27T14:54:34.681Z,105
2017-01-27T14:55:46.298Z,105
2017-01-27T14:56:57.921Z,105
2017-01-27T14:58:09.340Z,105
2017-01-27T14:59:20.798Z,105
2017-01-27T15:00:32.215Z,105
2017-01-27T15:01:43.628Z,105
2017-01-27T15:02:55.240Z,105
2017-01-27T15:04:06.853Z,100
2017-01-27T15:05:18.313Z,100
2017-01-27T15:06:29.719Z,100
2017-01-27T15:07:41.327Z,100
2017-01-27T15:08:52.739Z,95
2017-01-27T15:10:04.183Z,95
2017-01-27T15:11:15.645Z,95
2017-01-27T15:12:27.055Z,100
2017-01-27T15:13:38.673Z,95
2017-01-27T15:14:50.077Z,95
2017-01-27T15:16:01.480Z,95
2017-01-27T15:17:12.935Z,95
2017-01-27T15:18:24.744Z,90
2017-01-27T15:19:36.157Z,90
2017-01-27T15:20:47.570Z,85
2017-01-27T15:21:58.982Z,85
2017-01-27T15:23:10.444Z,80
2017-01-27T15:24:21.870Z,80
2017-01-27T15:25:33.283Z,75
2017-01-27T15:26:44.693Z,75
2017-01-27T15:27:56.306Z,70
2017-01-27T15:29:07.765Z,65
2017-01-27T15:30:19.175Z,65
2017-01-27T15:31:30.574Z,60
2017-01-27T15:32:41.996Z,60
2017-01-27T15:33:53.619Z,55
2017-01-27T15:35:05.077Z,55
2017-01-27T15:36:16.485Z,55
2017-01-27T15:37:27.896Z,50
2017-01-27T15:38:39.315Z,50
2017-01-27T15:39:50.747Z,45
2017-01-27T15:41:02.196Z,40
2017-01-27T15:42:13.610Z,40
2017-01-27T15:43:25.222Z,40
2017-01-27T15:44:36.628Z,35
2017-01-27T15:45:48.032Z,35
2017-01-27T15:46:59.490Z,30
2017-01-27T15:48:10.904Z,30
2017-01-27T15:49:22.309Z,30
2017-01-27T15:50:33.717Z,25
2017-01-27T15:51:45.327Z,25
2017-01-27T15:52:56.780Z,25
2017-01-27T15:54:08.197Z,20
2017-01-27T15:55:19.613Z,20
2017-01-27T15:56:31.015Z,20
2017-01-27T15:57:42.427Z,15
2017-01-27T15:58:53.890Z,15
2017-01-27T16:00:05.321Z,15
2017-01-27T16:01:16.732Z,10
2017-01-27T16:02:28.347Z,10
2017-01-27T16:03:39.754Z,10
2017-01-27T16:04:51.211Z,10
2017-01-27T16:06:02.633Z,10
2017-01-27T16:07:14.039Z,5
2017-01-27T16:08:25.441Z,5
2017-01-27T16:09:37.059Z,5
2017-01-27T16:10:48.517Z,5
2017-01-27T16:11:59.927Z,5
2017-01-27T16:13:11.340Z,5
2017-01-27T16:14:22.745Z,0
2017-01-27T16:15:34.153Z,0
2017-01-27T16:16:45.605Z,0
2017-01-27T16:17:57.016Z,0
2017-01-27T16:19:08.622Z,0
2017-01-27T16:20:20.028Z,0
2017-01-27T16:21:31.441Z,0
2017-01-27T16:22:42.898Z,0
2017-01-27T16:23:54.310Z,0
2017-01-27T16:25:05.711Z,0
2017-01-27T16:26:17.120Z,0
2017-01-27T16:27:28.733Z,0
2017-01-27T16:28:40.142Z,0
2017-01-27T16:29:51.565Z,0
2017-01-27T16:31:02.973Z,0
2017-01-27T16:32:14.386Z,0
2017-01-27T16:33:25.850Z,0
2017-01-27T16:34:37.462Z,0
2017-01-27T16:35:48.868Z,0
2017-01-27T16:37:00.278Z,0
2017-01-27T16:38:11.689Z,0
2017-01-27T16:39:23.147Z,0
2017-01-27T16:40:34.766Z,0
2017-01-27T16:41:46.179Z,0
2017-01-27T16:42:57.803Z,0
2017-01-27T16:44:09.209Z,0
2017-01-27T16:45:20.665Z,0
2017-01-27T16:46:32.076Z,0
2017-01-27T16:47:43.484Z,0
2017-01-27T16:48:54.900Z,0
2017-01-27T16:50:06.307Z,0
2017-01-27T16:51:17.772Z,0
2017-01-27T16:52:29.175Z,0
2017-01-27T16:53:40.591Z,0
2017-01-27T16:54:51.995Z,0
2017-01-27T16:56:03.400Z,0
2017-01-27T16:57:14.852Z,0
2017-01-27T16:58:26.255Z,0